createdAt,value
2019-02-17T00:00:04.795Z,81.10
2019-02-17T00:02:32.648Z,80.40
2019-02-17T00:05:00.719Z,81.50
2019-02-17T00:07:28.693Z,82.80
2019-02-17T00:09:56.548Z,82.20
2019-02-17T00:12:24.326Z,83.70
2019-02-17T00:14:52.136Z,83.90
2019-02-17T00:17:19.969Z,84.40
2019-02-17T00:19:47.920Z,83.20
2019-02-17T00:22:15.701Z,81.70
2019-02-17T00:24:43.574Z,81.30
2019-02-17T00:27:30.865Z,81.40
2019-02-17T00:29:58.683Z,83.00
2019-02-17T00:32:26.496Z,83.00
2019-02-17T00:34:55.677Z,82.90
2019-02-17T00:37:23.461Z,83.70
2019-02-17T00:39:51.248Z,83.20
2019-02-17T00:42:19.274Z,82.50
2019-02-17T00:44:47.113Z,82.80
2019-02-17T00:47:15.126Z,83.40
2019-02-17T00:49:42.921Z,82.00
2019-02-17T00:52:10.709Z,82.00
2019-02-17T00:54:38.510Z,82.60
2019-02-17T00:57:05.960Z,82.20
2019-02-17T00:59:33.973Z,81.70
2019-02-17T01:02:02.052Z,82.90
2019-02-17T01:04:29.888Z,81.60
2019-02-17T01:06:57.795Z,81.50
2019-02-17T01:09:25.641Z,82.60
2019-02-17T01:11:53.402Z,82.80
2019-02-17T01:14:21.247Z,83.90
2019-02-17T01:16:49.092Z,83.50
2019-02-17T01:19:22.312Z,83.80
2019-02-17T01:21:50.132Z,83.50
2019-02-17T01:24:17.980Z,83.70
2019-02-17T01:26:45.774Z,82.60
2019-02-17T01:29:20.130Z,82.00
2019-02-17T01:31:43.209Z,83.00
2019-02-17T01:34:11.185Z,82.20
2019-02-17T01:36:39.005Z,82.50
2019-02-17T01:39:12.038Z,81.60
2019-02-17T01:41:39.861Z,81.90
2019-02-17T01:44:07.671Z,82.20
2019-02-17T01:46:35.455Z,81.70
2019-02-17T01:49:03.343Z,81.70
2019-02-17T01:51:31.125Z,80.70
2019-02-17T01:53:58.987Z,80.70
2019-02-17T01:56:26.776Z,82.20
2019-02-17T01:59:14.295Z,81.90
2019-02-17T02:01:42.106Z,82.10
2019-02-17T02:04:09.915Z,80.60
2019-02-17T02:06:37.736Z,81.30
2019-02-17T02:09:08.977Z,81.10
2019-02-17T02:11:56.255Z,80.90
2019-02-17T02:14:24.031Z,81.10
2019-02-17T02:16:51.884Z,80.90
2019-02-17T02:19:19.820Z,80.50
2019-02-17T02:21:47.616Z,80.20
2019-02-17T02:24:15.499Z,81.00
2019-02-17T02:26:43.282Z,81.20
2019-02-17T02:29:16.182Z,81.50
2019-02-17T02:31:43.969Z,81.10
2019-02-17T02:34:14.022Z,81.80
2019-02-17T02:36:42.194Z,81.30
2019-02-17T02:39:10.270Z,81.60
2019-02-17T02:41:38.066Z,81.40
2019-02-17T02:44:05.908Z,81.70
2019-02-17T02:46:33.695Z,83.40
2019-02-17T02:49:01.582Z,82.50
2019-02-17T02:51:29.420Z,82.40
2019-02-17T02:53:57.226Z,82.90
2019-02-17T02:56:25.045Z,82.40
2019-02-17T02:58:52.995Z,82.90
2019-02-17T03:01:20.933Z,82.90
2019-02-17T03:03:48.739Z,83.00
2019-02-17T03:06:29.953Z,82.90
2019-02-17T03:08:58.018Z,83.00
2019-02-17T03:11:25.812Z,82.80
2019-02-17T03:13:55.665Z,82.60
2019-02-17T03:16:23.524Z,82.80
2019-02-17T03:18:51.418Z,82.80
2019-02-17T03:21:19.222Z,82.70
2019-02-17T03:23:48.489Z,83.90
2019-02-17T03:26:16.348Z,83.70
2019-02-17T03:28:44.261Z,82.60
2019-02-17T03:31:12.059Z,82.60
2019-02-17T03:33:39.841Z,83.70
2019-02-17T03:36:07.640Z,83.10
2019-02-17T03:38:40.644Z,84.10
2019-02-17T03:41:08.397Z,84.40
2019-02-17T03:43:36.215Z,86.70
2019-02-17T03:46:03.978Z,87.40
2019-02-17T03:48:31.936Z,87.50
2019-02-17T03:50:59.727Z,89.20
2019-02-17T03:53:27.570Z,89.20
2019-02-17T03:55:55.372Z,89.30
2019-02-17T03:58:23.363Z,89.50
2019-02-17T04:00:51.114Z,90.60
2019-02-17T04:03:18.924Z,91.20
2019-02-17T04:05:46.674Z,91.10
2019-02-17T04:08:14.479Z,91.10
2019-02-17T04:10:42.239Z,91.10
2019-02-17T04:13:10.056Z,91.30
2019-02-17T04:15:37.892Z,91.10
2019-02-17T04:18:05.731Z,91.20
2019-02-17T04:20:33.521Z,91.10
2019-02-17T04:23:01.310Z,90.90
2019-02-17T04:25:29.154Z,90.60
2019-02-17T04:27:56.926Z,90.80
2019-02-17T04:30:29.342Z,90.10
2019-02-17T04:32:54.422Z,90.10
2019-02-17T04:35:22.235Z,90.20
2019-02-17T04:37:50.102Z,90.60
2019-02-17T04:40:17.940Z,90.20
2019-02-17T04:42:45.756Z,90.40
2019-02-17T04:45:15.443Z,89.40
2019-02-17T04:47:43.227Z,90.30
2019-02-17T04:50:11.021Z,90.60
2019-02-17T04:52:38.811Z,90.20
2019-02-17T04:55:06.942Z,89.40
2019-02-17T04:57:34.735Z,88.20
2019-02-17T05:00:02.904Z,88.20
2019-02-17T05:02:30.699Z,88.60
2019-02-17T05:04:58.489Z,90.00
2019-02-17T05:07:26.303Z,90.20
2019-02-17T05:09:59.270Z,90.10
2019-02-17T05:12:27.043Z,89.70
2019-02-17T05:14:54.836Z,88.40
2019-02-17T05:17:22.654Z,90.00
2019-02-17T05:20:21.089Z,89.50
2019-02-17T05:22:48.906Z,88.60
2019-02-17T05:25:18.267Z,88.90
2019-02-17T05:27:46.070Z,88.10
2019-02-17T05:30:13.850Z,89.80
2019-02-17T05:32:41.684Z,90.20
2019-02-17T05:35:21.739Z,89.70
2019-02-17T05:37:49.610Z,90.30
2019-02-17T05:40:17.387Z,87.90
2019-02-17T05:42:45.248Z,87.90
2019-02-17T05:45:13.071Z,88.50
2019-02-17T05:47:40.890Z,87.20
2019-02-17T05:50:08.683Z,86.70
2019-02-17T05:52:36.480Z,87.60
2019-02-17T05:55:04.695Z,86.90
2019-02-17T05:57:32.530Z,88.90
2019-02-17T06:00:07.073Z,87.80
2019-02-17T06:02:34.901Z,88.10
2019-02-17T06:05:02.768Z,87.70
2019-02-17T06:07:30.564Z,87.90
2019-02-17T06:10:04.060Z,89.40
2019-02-17T06:12:31.872Z,88.00
2019-02-17T06:14:59.669Z,89.00
2019-02-17T06:17:27.488Z,87.70
2019-02-17T06:20:25.834Z,87.80
2019-02-17T06:22:53.678Z,87.80
2019-02-17T06:25:21.508Z,87.70
2019-02-17T06:28:04.400Z,88.10
2019-02-17T06:30:32.215Z,88.50
2019-02-17T06:33:00.045Z,87.70
2019-02-17T06:35:27.877Z,87.80
2019-02-17T06:38:15.161Z,87.70
2019-02-17T06:40:42.970Z,88.90
2019-02-17T06:43:10.765Z,87.20
2019-02-17T06:45:38.605Z,87.80
2019-02-17T06:48:30.871Z,86.20
2019-02-17T06:50:58.706Z,87.20
2019-02-17T06:53:26.512Z,88.10
2019-02-17T06:56:05.001Z,87.60
2019-02-17T06:58:37.850Z,88.40
2019-02-17T07:01:05.691Z,86.70
2019-02-17T07:03:33.521Z,87.70
2019-02-17T07:06:39.571Z,86.70
2019-02-17T07:09:07.504Z,87.80
2019-02-17T07:11:35.336Z,84.80
2019-02-17T07:14:03.119Z,85.90
2019-02-17T07:16:30.895Z,85.80
2019-02-17T07:18:58.933Z,85.50
2019-02-17T07:21:26.707Z,82.90
2019-02-17T07:23:54.580Z,83.50
2019-02-17T07:26:22.466Z,83.30
2019-02-17T07:28:50.626Z,83.50
2019-02-17T07:31:18.394Z,83.40
2019-02-17T07:33:46.274Z,82.20
2019-02-17T07:36:14.026Z,80.80
2019-02-17T07:38:41.989Z,80.20
2019-02-17T07:41:09.799Z,78.70
2019-02-17T07:43:37.623Z,77.60
2019-02-17T07:46:05.448Z,78.70
2019-02-17T07:48:48.448Z,77.10
2019-02-17T07:51:16.259Z,77.90
2019-02-17T07:53:44.063Z,77.60
2019-02-17T07:56:11.836Z,77.20
2019-02-17T07:58:39.772Z,76.00
2019-02-17T08:01:07.586Z,74.40
2019-02-17T08:03:35.433Z,73.90
2019-02-17T08:06:03.215Z,72.20
2019-02-17T08:08:31.024Z,71.20
2019-02-17T08:11:04.069Z,69.90
2019-02-17T08:13:28.444Z,68.50
2019-02-17T08:15:56.242Z,66.40
2019-02-17T08:18:29.294Z,65.40
2019-02-17T08:20:57.097Z,62.90
2019-02-17T08:23:24.884Z,61.50
2019-02-17T08:25:52.723Z,60.50
2019-02-17T08:28:20.643Z,62.60
2019-02-17T08:30:48.408Z,62.70
2019-02-17T08:33:16.227Z,63.60
2019-02-17T08:35:44.021Z,62.30
2019-02-17T08:38:22.198Z,62.40
2019-02-17T08:40:52.352Z,60.80
2019-02-17T08:43:20.154Z,61.70
2019-02-17T08:45:47.929Z,60.90
2019-02-17T08:48:16.164Z,60.60
2019-02-17T08:50:46.662Z,60.60
2019-02-17T08:53:14.539Z,61.40
2019-02-17T08:55:42.320Z,61.80
2019-02-17T08:58:15.294Z,62.70
2019-02-17T09:00:43.099Z,62.40
2019-02-17T09:03:10.893Z,63.60
2019-02-17T09:05:44.137Z,65.70
2019-02-17T09:08:10.863Z,65.80
2019-02-17T09:10:38.776Z,65.60
2019-02-17T09:13:06.602Z,65.70
2019-02-17T09:15:34.411Z,67.00
2019-02-17T09:18:03.323Z,66.60
2019-02-17T09:20:31.133Z,67.00
2019-02-17T09:22:58.867Z,66.40
2019-02-17T09:25:26.645Z,67.40
2019-02-17T09:27:59.549Z,67.40
2019-02-17T09:30:27.377Z,67.60
2019-02-17T09:32:55.133Z,66.60
2019-02-17T09:35:22.983Z,68.20
2019-02-17T09:37:50.767Z,68.20
2019-02-17T09:40:18.583Z,67.70
2019-02-17T09:42:46.361Z,66.70
2019-02-17T09:45:14.227Z,67.20
2019-02-17T09:47:42.140Z,67.20
2019-02-17T09:50:11.349Z,68.10
2019-02-17T09:52:39.166Z,67.50
2019-02-17T09:55:07.368Z,68.80
2019-02-17T09:57:35.141Z,69.40
2019-02-17T10:00:10.339Z,66.70
2019-02-17T10:02:38.143Z,66.80
2019-02-17T10:05:06.105Z,66.90
2019-02-17T10:07:33.954Z,66.40
2019-02-17T10:10:02.005Z,67.00
2019-02-17T10:12:29.875Z,66.80
2019-02-17T10:14:57.689Z,65.90
2019-02-17T10:17:25.886Z,64.30
2019-02-17T10:20:18.363Z,64.10
2019-02-17T10:22:46.179Z,62.80
2019-02-17T10:25:13.989Z,63.80
2019-02-17T10:27:41.790Z,63.50
2019-02-17T10:30:11.455Z,61.60
2019-02-17T10:32:39.446Z,61.60
2019-02-17T10:35:07.365Z,61.60
2019-02-17T10:37:35.190Z,61.60
2019-02-17T10:40:03.876Z,59.90
2019-02-17T10:42:31.777Z,58.80
2019-02-17T10:44:59.593Z,58.40
2019-02-17T10:47:27.466Z,59.20
2019-02-17T10:49:55.668Z,58.70
2019-02-17T10:52:23.522Z,57.80
2019-02-17T10:54:51.411Z,57.10
2019-02-17T10:57:19.208Z,57.20
2019-02-17T10:59:47.011Z,56.70
2019-02-17T11:02:14.766Z,55.90
2019-02-17T11:04:42.593Z,55.70
2019-02-17T11:07:10.434Z,54.90
2019-02-17T11:09:38.207Z,55.20
2019-02-17T11:12:06.009Z,56.00
2019-02-17T11:14:33.774Z,55.20
2019-02-17T11:17:01.596Z,54.10
2019-02-17T11:19:39.961Z,53.30
2019-02-17T11:22:07.781Z,49.60
2019-02-17T11:24:35.589Z,47.40
2019-02-17T11:27:03.404Z,43.50
2019-02-17T11:29:31.333Z,42.60
2019-02-17T11:31:59.148Z,40.50
2019-02-17T11:34:27.020Z,38.30
2019-02-17T11:36:54.770Z,36.50
2019-02-17T11:39:22.694Z,37.30
2019-02-17T11:41:50.493Z,35.30
2019-02-17T11:44:18.321Z,32.70
2019-02-17T11:46:46.150Z,32.80
2019-02-17T11:49:33.479Z,33.00
2019-02-17T11:52:01.250Z,33.00
2019-02-17T11:54:29.101Z,31.10
2019-02-17T11:56:56.942Z,29.10
2019-02-17T11:59:24.766Z,28.00
2019-02-17T12:01:52.523Z,27.70
2019-02-17T12:04:20.366Z,27.80
2019-02-17T12:06:48.138Z,27.80
2019-02-17T12:09:16.080Z,27.90
2019-02-17T12:11:43.939Z,27.30
2019-02-17T12:14:11.830Z,25.90
2019-02-17T12:16:39.688Z,26.40
2019-02-17T12:19:12.722Z,26.20
2019-02-17T12:21:51.101Z,25.30
2019-02-17T12:24:21.567Z,25.50
2019-02-17T12:27:21.231Z,25.60
2019-02-17T12:29:52.835Z,25.90
2019-02-17T12:32:24.456Z,25.10
2019-02-17T12:34:52.348Z,25.70
2019-02-17T12:37:20.160Z,24.90
2019-02-17T12:39:48.016Z,25.90
2019-02-17T12:42:15.822Z,24.50
2019-02-17T12:44:43.658Z,24.20
2019-02-17T12:47:11.534Z,23.30
2019-02-17T12:49:49.558Z,23.40
2019-02-17T12:52:17.349Z,23.10
2019-02-17T12:54:47.409Z,23.20
2019-02-17T12:57:15.183Z,23.60
2019-02-17T12:59:43.027Z,24.70
2019-02-17T13:02:10.874Z,25.50
2019-02-17T13:04:41.685Z,25.40
2019-02-17T13:07:09.467Z,26.20
2019-02-17T13:09:37.303Z,26.80
2019-02-17T13:12:05.102Z,27.40
2019-02-17T13:14:32.905Z,27.90
2019-02-17T13:17:11.962Z,28.20
2019-02-17T13:19:41.379Z,28.40
2019-02-17T13:22:09.266Z,28.20
2019-02-17T13:24:37.073Z,28.40
2019-02-17T13:27:04.920Z,28.20
2019-02-17T13:29:40.395Z,28.00
2019-02-17T13:32:08.203Z,27.90
2019-02-17T13:34:36.077Z,27.60
2019-02-17T13:37:03.828Z,27.60
2019-02-17T13:39:31.683Z,27.20
2019-02-17T13:41:59.498Z,27.20
2019-02-17T13:44:27.325Z,26.60
2019-02-17T13:46:55.064Z,26.80
2019-02-17T13:49:22.918Z,26.70
2019-02-17T13:51:51.141Z,26.70
2019-02-17T13:54:19.989Z,26.60
2019-02-17T13:56:48.294Z,26.40
2019-02-17T13:59:16.193Z,26.80
2019-02-17T14:01:44.078Z,27.10
2019-02-17T14:04:11.903Z,27.10
2019-02-17T14:06:39.765Z,26.40
2019-02-17T14:09:07.985Z,26.20
2019-02-17T14:11:35.876Z,25.50
2019-02-17T14:14:03.710Z,25.60
2019-02-17T14:16:31.621Z,25.80
2019-02-17T14:18:59.509Z,24.70
2019-02-17T14:21:30.083Z,24.00
2019-02-17T14:23:58.244Z,23.90
2019-02-17T14:26:26.149Z,22.80
2019-02-17T14:28:53.990Z,23.20
2019-02-17T14:31:21.885Z,23.20
2019-02-17T14:33:58.377Z,23.10
2019-02-17T14:36:20.235Z,22.90
2019-02-17T14:38:48.075Z,22.90
2019-02-17T14:41:18.615Z,23.50
2019-02-17T14:43:46.499Z,23.60
2019-02-17T14:46:14.441Z,23.60
2019-02-17T14:48:43.799Z,23.70
2019-02-17T15:04:17.103Z,24.80
2019-02-17T15:06:44.884Z,25.40
2019-02-17T15:09:12.856Z,25.20
2019-02-17T15:11:40.648Z,25.00
2019-02-17T15:14:10.859Z,26.10
2019-02-17T15:16:38.616Z,27.10
2019-02-17T15:19:06.660Z,27.50
2019-02-17T15:21:34.472Z,27.80
2019-02-17T15:24:02.401Z,28.00
2019-02-17T15:26:30.216Z,28.30
2019-02-17T15:28:58.354Z,29.00
2019-02-17T15:31:30.935Z,29.00
2019-02-17T15:33:58.659Z,29.20
2019-02-17T15:36:26.482Z,29.50
2019-02-17T15:38:54.566Z,30.00
2019-02-17T15:41:22.370Z,31.10
2019-02-17T15:43:50.586Z,31.60
2019-02-17T15:46:18.406Z,32.10
2019-02-17T15:48:46.223Z,31.90
2019-02-17T15:51:17.021Z,33.50
2019-02-17T15:53:44.813Z,35.40
2019-02-17T15:56:12.710Z,35.70
2019-02-17T15:58:40.520Z,36.50
2019-02-17T16:01:08.344Z,37.30
2019-02-17T16:03:36.220Z,37.30
2019-02-17T16:06:04.008Z,37.90
2019-02-17T16:08:31.881Z,38.50
2019-02-17T16:10:59.689Z,38.60
2019-02-17T16:13:27.495Z,40.00
2019-02-17T16:15:55.377Z,40.70
2019-02-17T16:18:23.221Z,40.50
2019-02-17T16:20:51.040Z,40.40
2019-02-17T16:23:18.849Z,40.10
2019-02-17T16:25:46.714Z,40.80
2019-02-17T16:28:15.382Z,41.20
2019-02-17T16:30:43.156Z,41.40
2019-02-17T16:33:11.097Z,42.20
2019-02-17T16:35:38.910Z,42.80
2019-02-17T16:38:06.838Z,43.30
2019-02-17T16:40:34.623Z,44.80
2019-02-17T16:43:02.864Z,44.20
2019-02-17T16:45:30.728Z,45.50
2019-02-17T16:47:58.587Z,46.70
2019-02-17T16:50:26.442Z,48.00
2019-02-17T16:52:59.115Z,48.80
2019-02-17T16:55:29.154Z,49.60
2019-02-17T16:58:01.665Z,49.50
2019-02-17T17:00:31.283Z,49.30
2019-02-17T17:03:10.039Z,49.90
2019-02-17T17:05:39.635Z,51.00
2019-02-17T17:08:14.809Z,50.10
2019-02-17T17:10:42.636Z,52.40
2019-02-17T17:13:10.498Z,52.50
2019-02-17T17:15:38.291Z,52.50
2019-02-17T17:18:06.107Z,52.90
2019-02-17T17:20:34.210Z,53.10
2019-02-17T17:23:01.951Z,53.00
2019-02-17T17:25:29.797Z,54.30
2019-02-17T17:27:57.630Z,54.70
2019-02-17T17:30:25.508Z,55.10
2019-02-17T17:32:53.305Z,55.80
2019-02-17T17:35:21.170Z,56.80
2019-02-17T17:38:08.434Z,57.40
2019-02-17T17:40:48.747Z,58.50
2019-02-17T17:43:16.600Z,58.00
2019-02-17T17:45:44.398Z,59.20
2019-02-17T17:48:12.265Z,58.30
2019-02-17T17:51:10.599Z,58.90
2019-02-17T17:53:38.425Z,59.50
2019-02-17T17:56:06.286Z,59.90
2019-02-17T17:58:34.085Z,60.50
2019-02-17T18:01:02.069Z,60.80
2019-02-17T18:03:29.877Z,60.90
2019-02-17T18:05:57.737Z,62.20
2019-02-17T18:08:25.555Z,62.20
2019-02-17T18:10:53.473Z,62.90
2019-02-17T18:13:22.046Z,64.30
2019-02-17T18:15:49.943Z,64.00
2019-02-17T18:18:17.758Z,64.80
2019-02-17T18:20:45.634Z,66.20
2019-02-17T18:23:13.450Z,67.20
2019-02-17T18:25:41.330Z,67.10
2019-02-17T18:28:09.195Z,66.10
2019-02-17T18:30:37.068Z,67.00
2019-02-17T18:33:05.939Z,67.00
2019-02-17T18:35:35.258Z,66.90
2019-02-17T18:38:03.778Z,66.90
2019-02-17T18:40:31.655Z,67.10
2019-02-17T18:42:59.539Z,66.80
2019-02-17T18:45:27.379Z,67.80
2019-02-17T18:47:55.254Z,68.70
2019-02-17T18:50:28.375Z,68.60
2019-02-17T18:52:56.248Z,67.70
2019-02-17T18:55:24.054Z,68.30
2019-02-17T18:57:51.899Z,67.60
2019-02-17T19:00:20.016Z,70.00
2019-02-17T19:02:47.939Z,70.10
2019-02-17T19:05:15.843Z,71.20
2019-02-17T19:07:43.761Z,71.00
2019-02-17T19:10:16.657Z,71.00
2019-02-17T19:12:44.719Z,71.30
2019-02-17T19:15:12.950Z,71.50
2019-02-17T19:17:40.874Z,71.50
2019-02-17T19:20:12.135Z,72.60
2019-02-17T19:22:40.062Z,72.10
2019-02-17T19:25:08.303Z,72.80
2019-02-17T19:27:36.418Z,73.10
2019-02-17T19:30:05.162Z,73.20
2019-02-17T19:32:33.054Z,73.60
2019-02-17T19:35:01.065Z,73.40
2019-02-17T19:37:28.892Z,74.10
2019-02-17T19:40:02.110Z,73.40
2019-02-17T19:42:29.989Z,73.70
2019-02-17T19:44:57.840Z,73.60
2019-02-17T19:47:25.804Z,74.00
2019-02-17T19:49:58.717Z,74.70
2019-02-17T19:52:26.593Z,74.50
2019-02-17T19:54:54.535Z,74.50
2019-02-17T19:57:22.459Z,75.10
2019-02-17T19:59:50.366Z,75.10
2019-02-17T20:02:21.737Z,75.10
2019-02-17T20:05:05.844Z,76.00
2019-02-17T20:07:33.694Z,75.80
2019-02-17T20:10:01.579Z,75.90
2019-02-17T20:12:29.409Z,75.70
2019-02-17T20:14:57.246Z,75.90
2019-02-17T20:17:25.157Z,75.80
2019-02-17T20:19:53.070Z,75.80
2019-02-17T20:22:21.019Z,75.80
2019-02-17T20:24:48.846Z,76.80
2019-02-17T20:27:16.702Z,78.40
2019-02-17T20:29:44.522Z,78.20
2019-02-17T20:32:12.420Z,78.00
2019-02-17T20:34:40.248Z,78.20
2019-02-17T20:37:08.113Z,79.60
2019-02-17T20:39:35.919Z,79.20
2019-02-17T20:42:03.798Z,78.00
2019-02-17T20:44:31.678Z,78.40
2019-02-17T20:47:18.946Z,78.30
2019-02-17T20:49:46.835Z,79.00
2019-02-17T20:52:14.675Z,77.70
2019-02-17T20:54:42.546Z,77.70
2019-02-17T20:57:10.405Z,78.90
2019-02-17T20:59:38.526Z,78.30
2019-02-17T21:02:07.087Z,78.20
2019-02-17T21:04:35.000Z,79.10
2019-02-17T21:07:02.861Z,79.50
2019-02-17T21:09:30.647Z,79.40
2019-02-17T21:12:04.692Z,78.00
2019-02-17T21:14:33.096Z,78.60
2019-02-17T21:17:03.741Z,78.70
2019-02-17T21:19:34.001Z,79.40
2019-02-17T21:22:01.933Z,79.10
2019-02-17T21:24:29.792Z,78.90
2019-02-17T21:26:57.591Z,80.00
2019-02-17T21:29:30.845Z,79.80
2019-02-17T21:31:58.693Z,80.20
2019-02-17T21:34:26.580Z,80.00
2019-02-17T21:36:54.431Z,80.00
2019-02-17T21:39:27.462Z,80.60
2019-02-17T21:41:57.066Z,80.00
2019-02-17T21:44:24.884Z,80.40
2019-02-17T21:46:52.735Z,80.00
2019-02-17T21:49:20.607Z,80.10
2019-02-17T21:51:48.425Z,80.00
2019-02-17T21:54:16.259Z,79.90
2019-02-17T21:56:44.067Z,79.90
2019-02-17T21:59:12.011Z,79.90
2019-02-17T22:01:39.850Z,79.80
2019-02-17T22:04:07.645Z,81.10
2019-02-17T22:06:35.458Z,80.60
2019-02-17T22:09:05.518Z,80.00
2019-02-17T22:11:33.797Z,80.00
2019-02-17T22:14:01.600Z,80.80
2019-02-17T22:16:29.388Z,81.20
2019-02-17T22:18:57.203Z,81.50
2019-02-17T22:21:24.976Z,81.10
2019-02-17T22:23:52.776Z,81.20
2019-02-17T22:26:20.551Z,80.30
2019-02-17T22:28:48.390Z,80.30
2019-02-17T22:31:16.210Z,81.30
2019-02-17T22:33:43.965Z,81.20
2019-02-17T22:36:12.494Z,81.80
2019-02-17T22:38:40.288Z,81.20
2019-02-17T22:41:08.073Z,82.80
2019-02-17T22:43:35.889Z,82.20
2019-02-17T22:46:03.720Z,82.10
2019-02-17T22:48:31.442Z,82.10
2019-02-17T22:50:59.401Z,81.30
2019-02-17T22:53:27.259Z,81.70
2019-02-17T22:55:55.059Z,81.80
2019-02-17T22:58:22.826Z,80.80
2019-02-17T23:01:01.241Z,80.60
2019-02-17T23:03:30.321Z,80.60
2019-02-17T23:05:58.138Z,81.20
2019-02-17T23:08:25.911Z,81.50
2019-02-17T23:10:53.726Z,81.80
2019-02-17T23:13:40.943Z,82.60
2019-02-17T23:16:08.767Z,83.00
2019-02-17T23:18:36.551Z,82.20
2019-02-17T23:21:04.394Z,82.30
2019-02-17T23:23:32.230Z,81.90
2019-02-17T23:26:00.037Z,82.60
2019-02-17T23:28:27.855Z,82.30
2019-02-17T23:31:15.316Z,82.60
2019-02-17T23:33:43.123Z,81.60
2019-02-17T23:36:10.947Z,82.30
2019-02-17T23:38:38.785Z,81.80
2019-02-17T23:41:06.678Z,82.10
2019-02-17T23:43:34.433Z,82.30
2019-02-17T23:46:02.264Z,82.60
2019-02-17T23:48:30.075Z,82.80
2019-02-17T23:50:57.936Z,82.50
2019-02-17T23:53:25.795Z,82.00
2019-02-17T23:55:53.611Z,82.50
2019-02-17T23:58:21.439Z,83.20
